sensor_id;sensor_type;location;lat;lon;timestamp;P1;durP1;ratioP1;P2;durP2;ratioP2
7583;SDS011;3833;41.764;26.204;2023-03-14T00:00:49;3.30;;;3.00;;
7583;SDS011;3833;41.764;26.204;2023-03-14T00:03:16;3.20;;;3.00;;
7583;SDS011;3833;41.764;26.204;2023-03-14T00:05:43;4.57;;;3.40;;
7583;SDS011;3833;41.764;26.204;2023-03-14T00:08:11;14.43;;;13.73;;
7583;SDS011;3833;41.764;26.204;2023-03-14T00:10:38;18.33;;;17.63;;
7583;SDS011;3833;41.764;26.204;2023-03-14T00:13:05;17.50;;;16.90;;
7583;SDS011;3833;41.764;26.204;2023-03-14T00:15:32;17.90;;;17.00;;
7583;SDS011;3833;41.764;26.204;2023-03-14T00:17:59;3.43;;;3.20;;
7583;SDS011;3833;41.764;26.204;2023-03-14T00:20:27;3.20;;;2.90;;
7583;SDS011;3833;41.764;26.204;2023-03-14T00:22:54;3.43;;;3.07;;
7583;SDS011;3833;41.764;26.204;2023-03-14T00:25:22;3.23;;;2.97;;
7583;SDS011;3833;41.764;26.204;2023-03-14T00:27:50;17.27;;;16.53;;
7583;SDS011;3833;41.764;26.204;2023-03-14T00:30:17;17.67;;;16.97;;
7583;SDS011;3833;41.764;26.204;2023-03-14T00:32:44;12.13;;;11.63;;
7583;SDS011;3833;41.764;26.204;2023-03-14T00:35:10;12.10;;;11.70;;
7583;SDS011;3833;41.764;26.204;2023-03-14T00:37:37;3.10;;;2.90;;
7583;SDS011;3833;41.764;26.204;2023-03-14T00:40:05;3.00;;;2.90;;
7583;SDS011;3833;41.764;26.204;2023-03-14T00:42:34;3.30;;;3.00;;
7583;SDS011;3833;41.764;26.204;2023-03-14T00:45:01;16.23;;;15.57;;
7583;SDS011;3833;41.764;26.204;2023-03-14T00:47:28;17.67;;;16.70;;
7583;SDS011;3833;41.764;26.204;2023-03-14T00:49:55;17.77;;;16.97;;
7583;SDS011;3833;41.764;26.204;2023-03-14T00:52:22;13.23;;;12.53;;
7583;SDS011;3833;41.764;26.204;2023-03-14T00:54:49;3.17;;;2.97;;
7583;SDS011;3833;41.764;26.204;2023-03-14T00:57:16;3.40;;;3.10;;
7583;SDS011;3833;41.764;26.204;2023-03-14T00:59:44;3.30;;;3.00;;
7583;SDS011;3833;41.764;26.204;2023-03-14T01:02:11;3.27;;;3.07;;
7583;SDS011;3833;41.764;26.204;2023-03-14T01:04:38;16.70;;;16.00;;
7583;SDS011;3833;41.764;26.204;2023-03-14T01:07:05;19.50;;;18.80;;
7583;SDS011;3833;41.764;26.204;2023-03-14T01:09:31;33.47;;;32.27;;
7583;SDS011;3833;41.764;26.204;2023-03-14T01:11:58;12.93;;;12.33;;
7583;SDS011;3833;41.764;26.204;2023-03-14T01:14:25;2.90;;;2.77;;
7583;SDS011;3833;41.764;26.204;2023-03-14T01:16:53;3.00;;;2.80;;
7583;SDS011;3833;41.764;26.204;2023-03-14T01:19:25;2.93;;;2.63;;
7583;SDS011;3833;41.764;26.204;2023-03-14T01:21:52;12.93;;;12.43;;
7583;SDS011;3833;41.764;26.204;2023-03-14T01:24:20;13.63;;;12.87;;
7583;SDS011;3833;41.764;26.204;2023-03-14T01:26:46;15.40;;;14.70;;
7583;SDS011;3833;41.764;26.204;2023-03-14T01:29:13;14.87;;;14.17;;
7583;SDS011;3833;41.764;26.204;2023-03-14T01:31:40;2.90;;;2.70;;
7583;SDS011;3833;41.764;26.204;2023-03-14T01:34:09;3.20;;;3.00;;
7583;SDS011;3833;41.764;26.204;2023-03-14T01:36:35;2.87;;;2.67;;
7583;SDS011;3833;41.764;26.204;2023-03-14T01:39:02;16.83;;;16.13;;
7583;SDS011;3833;41.764;26.204;2023-03-14T01:41:31;18.37;;;17.47;;
7583;SDS011;3833;41.764;26.204;2023-03-14T01:43:58;12.37;;;11.87;;
7583;SDS011;3833;41.764;26.204;2023-03-14T01:46:28;14.87;;;14.27;;
7583;SDS011;3833;41.764;26.204;2023-03-14T01:49:11;3.03;;;2.83;;
7583;SDS011;3833;41.764;26.204;2023-03-14T01:51:44;2.73;;;2.53;;
7583;SDS011;3833;41.764;26.204;2023-03-14T01:54:16;2.90;;;2.70;;
7583;SDS011;3833;41.764;26.204;2023-03-14T01:56:49;15.30;;;14.70;;
7583;SDS011;3833;41.764;26.204;2023-03-14T01:59:20;17.53;;;16.83;;
7583;SDS011;3833;41.764;26.204;2023-03-14T02:01:47;15.07;;;14.57;;
7583;SDS011;3833;41.764;26.204;2023-03-14T02:04:19;13.40;;;12.70;;
7583;SDS011;3833;41.764;26.204;2023-03-14T02:06:48;2.90;;;2.70;;
7583;SDS011;3833;41.764;26.204;2023-03-14T02:09:18;16.97;;;16.37;;
7583;SDS011;3833;41.764;26.204;2023-03-14T02:11:46;18.20;;;17.50;;
7583;SDS011;3833;41.764;26.204;2023-03-14T02:14:16;13.10;;;12.60;;
7583;SDS011;3833;41.764;26.204;2023-03-14T02:16:50;14.50;;;13.90;;
7583;SDS011;3833;41.764;26.204;2023-03-14T02:19:21;3.40;;;3.20;;
7583;SDS011;3833;41.764;26.204;2023-03-14T02:21:59;17.57;;;16.97;;
7583;SDS011;3833;41.764;26.204;2023-03-14T02:24:33;17.33;;;16.63;;
7583;SDS011;3833;41.764;26.204;2023-03-14T02:27:11;11.57;;;11.13;;
7583;SDS011;3833;41.764;26.204;2023-03-14T02:29:40;16.07;;;15.47;;
7583;SDS011;3833;41.764;26.204;2023-03-14T02:32:13;2.80;;;2.60;;
7583;SDS011;3833;41.764;26.204;2023-03-14T02:34:43;3.50;;;3.03;;
7583;SDS011;3833;41.764;26.204;2023-03-14T02:37:12;2.67;;;2.57;;
7583;SDS011;3833;41.764;26.204;2023-03-14T02:39:41;2.90;;;2.80;;
7583;SDS011;3833;41.764;26.204;2023-03-14T02:42:12;4.23;;;4.00;;
7583;SDS011;3833;41.764;26.204;2023-03-14T02:44:47;49.10;;;47.40;;
7583;SDS011;3833;41.764;26.204;2023-03-14T02:47:16;52.43;;;50.43;;
7583;SDS011;3833;41.764;26.204;2023-03-14T02:49:46;36.20;;;35.00;;
7583;SDS011;3833;41.764;26.204;2023-03-14T02:52:13;4.77;;;4.57;;
7583;SDS011;3833;41.764;26.204;2023-03-14T02:54:40;2.40;;;2.30;;
7583;SDS011;3833;41.764;26.204;2023-03-14T02:57:07;3.47;;;2.70;;
7583;SDS011;3833;41.764;26.204;2023-03-14T02:59:35;3.50;;;2.97;;
7583;SDS011;3833;41.764;26.204;2023-03-14T03:02:02;16.47;;;15.87;;
7583;SDS011;3833;41.764;26.204;2023-03-14T03:04:29;17.33;;;16.73;;
7583;SDS011;3833;41.764;26.204;2023-03-14T03:06:56;12.13;;;11.63;;
7583;SDS011;3833;41.764;26.204;2023-03-14T03:09:23;16.53;;;15.93;;
7583;SDS011;3833;41.764;26.204;2023-03-14T03:11:50;2.57;;;2.47;;
7583;SDS011;3833;41.764;26.204;2023-03-14T03:14:16;3.20;;;3.00;;
7583;SDS011;3833;41.764;26.204;2023-03-14T03:16:45;2.70;;;2.60;;
7583;SDS011;3833;41.764;26.204;2023-03-14T03:19:12;10.70;;;10.20;;
7583;SDS011;3833;41.764;26.204;2023-03-14T03:21:41;17.87;;;17.17;;
7583;SDS011;3833;41.764;26.204;2023-03-14T03:24:08;15.83;;;15.33;;
7583;SDS011;3833;41.764;26.204;2023-03-14T03:26:34;16.77;;;16.17;;
7583;SDS011;3833;41.764;26.204;2023-03-14T03:29:02;3.07;;;2.87;;
7583;SDS011;3833;41.764;26.204;2023-03-14T03:31:29;3.00;;;2.80;;
7583;SDS011;3833;41.764;26.204;2023-03-14T03:33:57;3.20;;;3.00;;
7583;SDS011;3833;41.764;26.204;2023-03-14T03:36:24;16.43;;;15.73;;
7583;SDS011;3833;41.764;26.204;2023-03-14T03:38:52;16.63;;;16.03;;
7583;SDS011;3833;41.764;26.204;2023-03-14T03:41:19;11.37;;;10.97;;
7583;SDS011;3833;41.764;26.204;2023-03-14T03:43:45;7.43;;;7.13;;
7583;SDS011;3833;41.764;26.204;2023-03-14T03:46:12;2.83;;;2.60;;
7583;SDS011;3833;41.764;26.204;2023-03-14T03:48:39;2.50;;;2.40;;
7583;SDS011;3833;41.764;26.204;2023-03-14T03:51:08;3.00;;;2.80;;
7583;SDS011;3833;41.764;26.204;2023-03-14T03:53:38;14.83;;;14.23;;
7583;SDS011;3833;41.764;26.204;2023-03-14T03:56:06;14.33;;;13.83;;
7583;SDS011;3833;41.764;26.204;2023-03-14T03:58:33;15.93;;;15.33;;
7583;SDS011;3833;41.764;26.204;2023-03-14T04:01:00;7.80;;;7.50;;
7583;SDS011;3833;41.764;26.204;2023-03-14T04:03:27;3.07;;;2.77;;
7583;SDS011;3833;41.764;26.204;2023-03-14T04:05:57;2.50;;;2.40;;
7583;SDS011;3833;41.764;26.204;2023-03-14T04:08:27;2.90;;;2.80;;
7583;SDS011;3833;41.764;26.204;2023-03-14T04:10:55;8.33;;;7.93;;
7583;SDS011;3833;41.764;26.204;2023-03-14T04:13:22;6.70;;;6.50;;
7583;SDS011;3833;41.764;26.204;2023-03-14T04:15:49;7.20;;;6.70;;
7583;SDS011;3833;41.764;26.204;2023-03-14T04:18:16;16.53;;;15.93;;
7583;SDS011;3833;41.764;26.204;2023-03-14T04:20:43;3.00;;;2.80;;
7583;SDS011;3833;41.764;26.204;2023-03-14T04:23:10;2.70;;;2.60;;
7583;SDS011;3833;41.764;26.204;2023-03-14T04:25:39;2.60;;;2.50;;
7583;SDS011;3833;41.764;26.204;2023-03-14T04:28:06;26.60;;;25.60;;
7583;SDS011;3833;41.764;26.204;2023-03-14T04:30:33;14.53;;;14.07;;
7583;SDS011;3833;41.764;26.204;2023-03-14T04:33:00;18.73;;;18.03;;
7583;SDS011;3833;41.764;26.204;2023-03-14T04:35:27;15.90;;;15.30;;
7583;SDS011;3833;41.764;26.204;2023-03-14T04:37:56;43.27;;;41.60;;
7583;SDS011;3833;41.764;26.204;2023-03-14T04:40:24;2.60;;;2.50;;
7583;SDS011;3833;41.764;26.204;2023-03-14T04:42:52;3.00;;;2.80;;
7583;SDS011;3833;41.764;26.204;2023-03-14T04:45:19;2.90;;;2.80;;
7583;SDS011;3833;41.764;26.204;2023-03-14T04:47:46;3.07;;;2.87;;
7583;SDS011;3833;41.764;26.204;2023-03-14T04:50:13;17.77;;;17.13;;
7583;SDS011;3833;41.764;26.204;2023-03-14T04:52:40;14.70;;;14.20;;
7583;SDS011;3833;41.764;26.204;2023-03-14T04:55:07;14.03;;;13.53;;
7583;SDS011;3833;41.764;26.204;2023-03-14T04:57:35;8.23;;;7.93;;
7583;SDS011;3833;41.764;26.204;2023-03-14T05:00:03;3.27;;;3.00;;
7583;SDS011;3833;41.764;26.204;2023-03-14T05:02:32;2.70;;;2.60;;
7583;SDS011;3833;41.764;26.204;2023-03-14T05:04:59;2.90;;;2.80;;
7583;SDS011;3833;41.764;26.204;2023-03-14T05:07:26;3.13;;;3.00;;
7583;SDS011;3833;41.764;26.204;2023-03-14T05:09:53;2.80;;;2.70;;
7583;SDS011;3833;41.764;26.204;2023-03-14T05:12:20;6.27;;;6.07;;
7583;SDS011;3833;41.764;26.204;2023-03-14T05:14:47;5.83;;;5.53;;
7583;SDS011;3833;41.764;26.204;2023-03-14T05:17:16;3.93;;;3.83;;
7583;SDS011;3833;41.764;26.204;2023-03-14T05:19:43;4.40;;;4.20;;
7583;SDS011;3833;41.764;26.204;2023-03-14T05:22:11;2.90;;;2.80;;
7583;SDS011;3833;41.764;26.204;2023-03-14T05:24:38;2.90;;;2.80;;
7583;SDS011;3833;41.764;26.204;2023-03-14T05:27:05;3.00;;;2.80;;
7583;SDS011;3833;41.764;26.204;2023-03-14T05:29:32;3.20;;;2.90;;
7583;SDS011;3833;41.764;26.204;2023-03-14T05:31:59;3.30;;;3.17;;
7583;SDS011;3833;41.764;26.204;2023-03-14T05:34:27;5.30;;;5.03;;
7583;SDS011;3833;41.764;26.204;2023-03-14T05:36:54;4.80;;;4.63;;
7583;SDS011;3833;41.764;26.204;2023-03-14T05:39:21;6.57;;;6.27;;
7583;SDS011;3833;41.764;26.204;2023-03-14T05:41:48;6.63;;;6.33;;
7583;SDS011;3833;41.764;26.204;2023-03-14T05:44:16;3.43;;;3.20;;
7583;SDS011;3833;41.764;26.204;2023-03-14T05:46:43;2.80;;;2.70;;
7583;SDS011;3833;41.764;26.204;2023-03-14T05:49:09;2.80;;;2.70;;
7583;SDS011;3833;41.764;26.204;2023-03-14T05:51:38;11.60;;;11.20;;
7583;SDS011;3833;41.764;26.204;2023-03-14T05:54:05;9.63;;;9.33;;
7583;SDS011;3833;41.764;26.204;2023-03-14T05:56:32;5.63;;;5.33;;
7583;SDS011;3833;41.764;26.204;2023-03-14T05:59:01;5.53;;;5.23;;
7583;SDS011;3833;41.764;26.204;2023-03-14T06:01:29;3.07;;;2.87;;
7583;SDS011;3833;41.764;26.204;2023-03-14T06:03:56;3.13;;;3.03;;
7583;SDS011;3833;41.764;26.204;2023-03-14T06:06:24;5.33;;;5.10;;
7583;SDS011;3833;41.764;26.204;2023-03-14T06:08:52;23.17;;;22.27;;
7583;SDS011;3833;41.764;26.204;2023-03-14T06:11:19;22.73;;;21.90;;
7583;SDS011;3833;41.764;26.204;2023-03-14T06:13:46;25.57;;;24.67;;
7583;SDS011;3833;41.764;26.204;2023-03-14T06:16:13;14.10;;;13.57;;
7583;SDS011;3833;41.764;26.204;2023-03-14T06:18:40;4.00;;;3.70;;
7583;SDS011;3833;41.764;26.204;2023-03-14T06:21:07;5.47;;;4.97;;
7583;SDS011;3833;41.764;26.204;2023-03-14T06:23:34;8.27;;;6.93;;
7583;SDS011;3833;41.764;26.204;2023-03-14T06:26:02;19.50;;;18.40;;
7583;SDS011;3833;41.764;26.204;2023-03-14T06:28:30;25.77;;;24.53;;
7583;SDS011;3833;41.764;26.204;2023-03-14T06:30:58;24.17;;;23.10;;
7583;SDS011;3833;41.764;26.204;2023-03-14T06:33:25;22.33;;;21.43;;
7583;SDS011;3833;41.764;26.204;2023-03-14T06:35:52;5.30;;;4.80;;
7583;SDS011;3833;41.764;26.204;2023-03-14T06:38:19;5.40;;;5.00;;
7583;SDS011;3833;41.764;26.204;2023-03-14T06:40:45;25.67;;;24.37;;
7583;SDS011;3833;41.764;26.204;2023-03-14T06:43:14;33.00;;;31.10;;
7583;SDS011;3833;41.764;26.204;2023-03-14T06:45:41;22.20;;;21.10;;
7583;SDS011;3833;41.764;26.204;2023-03-14T06:48:08;21.77;;;20.87;;
7583;SDS011;3833;41.764;26.204;2023-03-14T06:50:35;5.37;;;4.90;;
7583;SDS011;3833;41.764;26.204;2023-03-14T06:53:02;24.23;;;23.27;;
7583;SDS011;3833;41.764;26.204;2023-03-14T06:55:29;24.60;;;23.60;;
7583;SDS011;3833;41.764;26.204;2023-03-14T06:57:56;22.83;;;21.93;;
7583;SDS011;3833;41.764;26.204;2023-03-14T07:00:24;23.10;;;22.13;;
7583;SDS011;3833;41.764;26.204;2023-03-14T07:02:52;5.00;;;4.70;;
7583;SDS011;3833;41.764;26.204;2023-03-14T07:05:19;5.13;;;4.67;;
7583;SDS011;3833;41.764;26.204;2023-03-14T07:07:46;25.77;;;24.70;;
7583;SDS011;3833;41.764;26.204;2023-03-14T07:10:12;25.33;;;23.93;;
7583;SDS011;3833;41.764;26.204;2023-03-14T07:12:39;21.90;;;21.10;;
7583;SDS011;3833;41.764;26.204;2023-03-14T07:15:07;23.37;;;22.07;;
7583;SDS011;3833;41.764;26.204;2023-03-14T07:17:36;4.60;;;4.30;;
7583;SDS011;3833;41.764;26.204;2023-03-14T07:20:03;5.00;;;4.60;;
7583;SDS011;3833;41.764;26.204;2023-03-14T07:22:30;5.17;;;4.73;;
7583;SDS011;3833;41.764;26.204;2023-03-14T07:24:58;6.27;;;5.63;;
7583;SDS011;3833;41.764;26.204;2023-03-14T07:27:25;6.10;;;5.70;;
7583;SDS011;3833;41.764;26.204;2023-03-14T07:29:52;23.60;;;22.57;;
7583;SDS011;3833;41.764;26.204;2023-03-14T07:32:19;28.57;;;27.37;;
7583;SDS011;3833;41.764;26.204;2023-03-14T07:34:47;28.07;;;26.97;;
7583;SDS011;3833;41.764;26.204;2023-03-14T07:37:14;24.93;;;23.90;;
7583;SDS011;3833;41.764;26.204;2023-03-14T07:39:41;5.70;;;5.20;;
7583;SDS011;3833;41.764;26.204;2023-03-14T07:42:07;5.33;;;4.20;;
7583;SDS011;3833;41.764;26.204;2023-03-14T07:44:36;4.47;;;4.07;;
7583;SDS011;3833;41.764;26.204;2023-03-14T07:47:03;4.10;;;3.80;;
7583;SDS011;3833;41.764;26.204;2023-03-14T07:49:29;5.53;;;3.87;;
7583;SDS011;3833;41.764;26.204;2023-03-14T07:51:58;23.67;;;22.57;;
7583;SDS011;3833;41.764;26.204;2023-03-14T07:54:25;23.77;;;22.87;;
7583;SDS011;3833;41.764;26.204;2023-03-14T07:56:52;24.20;;;23.10;;
7583;SDS011;3833;41.764;26.204;2023-03-14T07:59:19;20.10;;;19.20;;
7583;SDS011;3833;41.764;26.204;2023-03-14T08:01:46;4.43;;;4.03;;
7583;SDS011;3833;41.764;26.204;2023-03-14T08:04:12;4.40;;;4.10;;
7583;SDS011;3833;41.764;26.204;2023-03-14T08:06:39;4.03;;;3.63;;
7583;SDS011;3833;41.764;26.204;2023-03-14T08:09:08;4.00;;;3.70;;
7583;SDS011;3833;41.764;26.204;2023-03-14T08:11:35;3.83;;;3.50;;
7583;SDS011;3833;41.764;26.204;2023-03-14T08:14:01;23.40;;;22.20;;
7583;SDS011;3833;41.764;26.204;2023-03-14T08:16:28;24.00;;;23.10;;
7583;SDS011;3833;41.764;26.204;2023-03-14T08:18:55;23.07;;;22.13;;
7583;SDS011;3833;41.764;26.204;2023-03-14T08:21:22;22.50;;;21.60;;
7583;SDS011;3833;41.764;26.204;2023-03-14T08:23:49;4.90;;;4.40;;
7583;SDS011;3833;41.764;26.204;2023-03-14T08:26:17;23.60;;;22.60;;
7583;SDS011;3833;41.764;26.204;2023-03-14T08:28:44;25.07;;;23.77;;
7583;SDS011;3833;41.764;26.204;2023-03-14T08:31:11;23.37;;;22.43;;
7583;SDS011;3833;41.764;26.204;2023-03-14T08:33:38;23.50;;;22.57;;
7583;SDS011;3833;41.764;26.204;2023-03-14T08:36:05;3.60;;;3.30;;
7583;SDS011;3833;41.764;26.204;2023-03-14T08:38:32;4.90;;;4.50;;
7583;SDS011;3833;41.764;26.204;2023-03-14T08:40:59;3.60;;;3.40;;
7583;SDS011;3833;41.764;26.204;2023-03-14T08:43:30;6.37;;;4.83;;
7583;SDS011;3833;41.764;26.204;2023-03-14T08:45:57;4.57;;;4.17;;
7583;SDS011;3833;41.764;26.204;2023-03-14T08:48:25;4.03;;;3.73;;
7583;SDS011;3833;41.764;26.204;2023-03-14T08:50:51;7.07;;;6.07;;
7583;SDS011;3833;41.764;26.204;2023-03-14T08:53:18;4.37;;;4.07;;
7583;SDS011;3833;41.764;26.204;2023-03-14T08:55:47;3.60;;;3.40;;
7583;SDS011;3833;41.764;26.204;2023-03-14T08:58:18;23.23;;;22.17;;
7583;SDS011;3833;41.764;26.204;2023-03-14T09:00:46;24.07;;;23.13;;
7583;SDS011;3833;41.764;26.204;2023-03-14T09:03:13;23.27;;;22.17;;
7583;SDS011;3833;41.764;26.204;2023-03-14T09:05:40;23.57;;;22.57;;
7583;SDS011;3833;41.764;26.204;2023-03-14T09:08:07;4.50;;;3.57;;
7583;SDS011;3833;41.764;26.204;2023-03-14T09:10:34;3.53;;;2.63;;
7583;SDS011;3833;41.764;26.204;2023-03-14T09:13:01;4.20;;;3.90;;
7583;SDS011;3833;41.764;26.204;2023-03-14T09:15:27;4.30;;;4.00;;
7583;SDS011;3833;41.764;26.204;2023-03-14T09:17:56;6.13;;;5.53;;
7583;SDS011;3833;41.764;26.204;2023-03-14T09:20:23;5.27;;;4.80;;
7583;SDS011;3833;41.764;26.204;2023-03-14T09:22:49;6.50;;;5.80;;
7583;SDS011;3833;41.764;26.204;2023-03-14T09:25:16;5.17;;;3.97;;
7583;SDS011;3833;41.764;26.204;2023-03-14T09:27:43;4.13;;;3.90;;
7583;SDS011;3833;41.764;26.204;2023-03-14T09:30:11;3.93;;;3.73;;
7583;SDS011;3833;41.764;26.204;2023-03-14T09:32:38;22.60;;;21.70;;
7583;SDS011;3833;41.764;26.204;2023-03-14T09:35:06;23.63;;;22.63;;
7583;SDS011;3833;41.764;26.204;2023-03-14T09:37:34;24.57;;;23.53;;
7583;SDS011;3833;41.764;26.204;2023-03-14T09:40:02;24.57;;;23.47;;
7583;SDS011;3833;41.764;26.204;2023-03-14T09:42:35;4.37;;;4.07;;
7583;SDS011;3833;41.764;26.204;2023-03-14T09:45:04;3.90;;;3.70;;
7583;SDS011;3833;41.764;26.204;2023-03-14T09:47:36;3.23;;;3.03;;
7583;SDS011;3833;41.764;26.204;2023-03-14T09:50:05;3.77;;;3.47;;
7583;SDS011;3833;41.764;26.204;2023-03-14T09:52:38;4.03;;;3.60;;
7583;SDS011;3833;41.764;26.204;2023-03-14T09:55:10;3.70;;;3.40;;
7583;SDS011;3833;41.764;26.204;2023-03-14T09:57:39;3.80;;;3.50;;
7583;SDS011;3833;41.764;26.204;2023-03-14T10:00:12;4.33;;;3.93;;
7583;SDS011;3833;41.764;26.204;2023-03-14T10:02:43;24.23;;;23.23;;
7583;SDS011;3833;41.764;26.204;2023-03-14T10:05:16;25.10;;;24.10;;
7583;SDS011;3833;41.764;26.204;2023-03-14T10:07:43;24.60;;;23.50;;
7583;SDS011;3833;41.764;26.204;2023-03-14T10:10:11;25.63;;;24.33;;
7583;SDS011;3833;41.764;26.204;2023-03-14T10:12:44;3.50;;;3.20;;
7583;SDS011;3833;41.764;26.204;2023-03-14T10:15:12;4.43;;;4.13;;
7583;SDS011;3833;41.764;26.204;2023-03-14T10:17:43;4.13;;;3.83;;
7583;SDS011;3833;41.764;26.204;2023-03-14T10:22:59;4.03;;;3.83;;
7583;SDS011;3833;41.764;26.204;2023-03-14T10:25:26;4.17;;;3.97;;
7583;SDS011;3833;41.764;26.204;2023-03-14T10:27:55;3.80;;;3.60;;
7583;SDS011;3833;41.764;26.204;2023-03-14T10:30:30;4.07;;;3.83;;
7583;SDS011;3833;41.764;26.204;2023-03-14T10:33:09;4.30;;;4.00;;
7583;SDS011;3833;41.764;26.204;2023-03-14T10:35:40;25.43;;;24.33;;
7583;SDS011;3833;41.764;26.204;2023-03-14T10:38:11;25.73;;;24.73;;
7583;SDS011;3833;41.764;26.204;2023-03-14T10:40:39;26.43;;;25.23;;
7583;SDS011;3833;41.764;26.204;2023-03-14T10:43:13;20.77;;;19.87;;
7583;SDS011;3833;41.764;26.204;2023-03-14T10:45:44;3.97;;;3.57;;
7583;SDS011;3833;41.764;26.204;2023-03-14T10:48:18;3.53;;;3.33;;
7583;SDS011;3833;41.764;26.204;2023-03-14T10:50:49;3.80;;;3.33;;
7583;SDS011;3833;41.764;26.204;2023-03-14T10:53:20;3.33;;;2.93;;
7583;SDS011;3833;41.764;26.204;2023-03-14T10:55:47;3.30;;;3.10;;
7583;SDS011;3833;41.764;26.204;2023-03-14T10:58:18;3.30;;;3.10;;
7583;SDS011;3833;41.764;26.204;2023-03-14T11:00:47;3.87;;;3.57;;
7583;SDS011;3833;41.764;26.204;2023-03-14T11:03:20;4.10;;;3.70;;
7583;SDS011;3833;41.764;26.204;2023-03-14T11:05:51;3.63;;;3.33;;
7583;SDS011;3833;41.764;26.204;2023-03-14T11:08:23;3.87;;;3.67;;
7583;SDS011;3833;41.764;26.204;2023-03-14T11:10:54;3.53;;;3.33;;
7583;SDS011;3833;41.764;26.204;2023-03-14T11:13:34;4.27;;;3.97;;
7583;SDS011;3833;41.764;26.204;2023-03-14T11:16:06;3.60;;;3.40;;
7583;SDS011;3833;41.764;26.204;2023-03-14T11:19:00;4.60;;;3.67;;
7583;SDS011;3833;41.764;26.204;2023-03-14T11:21:41;4.60;;;4.20;;
7583;SDS011;3833;41.764;26.204;2023-03-14T11:24:24;5.70;;;5.20;;
7583;SDS011;3833;41.764;26.204;2023-03-14T11:27:10;5.40;;;4.87;;
7583;SDS011;3833;41.764;26.204;2023-03-14T11:29:46;4.53;;;4.20;;
7583;SDS011;3833;41.764;26.204;2023-03-14T11:32:23;4.53;;;4.23;;
7583;SDS011;3833;41.764;26.204;2023-03-14T11:34:57;4.80;;;4.40;;
7583;SDS011;3833;41.764;26.204;2023-03-14T11:37:31;7.27;;;5.27;;
7583;SDS011;3833;41.764;26.204;2023-03-14T11:40:01;5.00;;;4.60;;
7583;SDS011;3833;41.764;26.204;2023-03-14T11:42:34;7.10;;;6.17;;
7583;SDS011;3833;41.764;26.204;2023-03-14T11:45:02;6.77;;;6.07;;
7583;SDS011;3833;41.764;26.204;2023-03-14T11:47:31;7.37;;;6.57;;
7583;SDS011;3833;41.764;26.204;2023-03-14T11:50:04;9.13;;;7.43;;
7583;SDS011;3833;41.764;26.204;2023-03-14T11:52:41;8.40;;;7.53;;
7583;SDS011;3833;41.764;26.204;2023-03-14T11:55:17;7.17;;;6.50;;
7583;SDS011;3833;41.764;26.204;2023-03-14T11:57:51;7.57;;;6.30;;
7583;SDS011;3833;41.764;26.204;2023-03-14T12:00:20;9.50;;;7.40;;
7583;SDS011;3833;41.764;26.204;2023-03-14T12:02:51;12.47;;;10.67;;
7583;SDS011;3833;41.764;26.204;2023-03-14T12:05:26;14.43;;;13.03;;
7583;SDS011;3833;41.764;26.204;2023-03-14T12:08:35;12.60;;;10.40;;
7583;SDS011;3833;41.764;26.204;2023-03-14T12:11:09;12.13;;;9.93;;
7583;SDS011;3833;41.764;26.204;2023-03-14T12:13:40;7.20;;;6.60;;
7583;SDS011;3833;41.764;26.204;2023-03-14T12:16:27;6.03;;;5.43;;
7583;SDS011;3833;41.764;26.204;2023-03-14T12:19:12;5.33;;;4.83;;
7583;SDS011;3833;41.764;26.204;2023-03-14T12:21:55;7.00;;;6.40;;
7583;SDS011;3833;41.764;26.204;2023-03-14T12:24:40;5.63;;;5.23;;
7583;SDS011;3833;41.764;26.204;2023-03-14T12:27:37;6.63;;;5.50;;
7583;SDS011;3833;41.764;26.204;2023-03-14T12:30:13;6.03;;;5.53;;
7583;SDS011;3833;41.764;26.204;2023-03-14T12:35:58;5.20;;;4.70;;
7583;SDS011;3833;41.764;26.204;2023-03-14T12:38:29;5.00;;;4.60;;
7583;SDS011;3833;41.764;26.204;2023-03-14T12:41:14;5.70;;;5.20;;
7583;SDS011;3833;41.764;26.204;2023-03-14T12:43:44;4.00;;;3.60;;
7583;SDS011;3833;41.764;26.204;2023-03-14T12:46:21;5.70;;;5.13;;
7583;SDS011;3833;41.764;26.204;2023-03-14T12:48:50;5.43;;;4.60;;
7583;SDS011;3833;41.764;26.204;2023-03-14T12:51:26;3.70;;;3.50;;
7583;SDS011;3833;41.764;26.204;2023-03-14T12:54:15;4.23;;;3.93;;
7583;SDS011;3833;41.764;26.204;2023-03-14T12:57:11;4.93;;;3.07;;
7583;SDS011;3833;41.764;26.204;2023-03-14T12:59:50;2.93;;;2.73;;
7583;SDS011;3833;41.764;26.204;2023-03-14T13:02:25;3.43;;;2.70;;
7583;SDS011;3833;41.764;26.204;2023-03-14T13:05:00;2.83;;;2.60;;
7583;SDS011;3833;41.764;26.204;2023-03-14T13:07:39;3.57;;;2.50;;
7583;SDS011;3833;41.764;26.204;2023-03-14T13:10:39;4.50;;;4.10;;
7583;SDS011;3833;41.764;26.204;2023-03-14T13:13:16;4.00;;;3.70;;
7583;SDS011;3833;41.764;26.204;2023-03-14T13:15:46;4.70;;;3.57;;
7583;SDS011;3833;41.764;26.204;2023-03-14T13:18:17;2.93;;;2.73;;
7583;SDS011;3833;41.764;26.204;2023-03-14T13:20:51;2.40;;;2.20;;
7583;SDS011;3833;41.764;26.204;2023-03-14T13:23:21;2.47;;;2.33;;
7583;SDS011;3833;41.764;26.204;2023-03-14T13:25:49;4.20;;;3.87;;
7583;SDS011;3833;41.764;26.204;2023-03-14T13:28:17;2.80;;;2.60;;
7583;SDS011;3833;41.764;26.204;2023-03-14T13:30:45;2.70;;;2.50;;
7583;SDS011;3833;41.764;26.204;2023-03-14T13:33:14;2.97;;;2.77;;
7583;SDS011;3833;41.764;26.204;2023-03-14T13:35:43;3.20;;;2.83;;
7583;SDS011;3833;41.764;26.204;2023-03-14T13:38:18;2.87;;;2.73;;
7583;SDS011;3833;41.764;26.204;2023-03-14T13:40:48;3.70;;;3.37;;
7583;SDS011;3833;41.764;26.204;2023-03-14T13:43:18;3.33;;;3.13;;
7583;SDS011;3833;41.764;26.204;2023-03-14T13:45:50;3.83;;;3.53;;
7583;SDS011;3833;41.764;26.204;2023-03-14T13:48:19;4.40;;;4.00;;
7583;SDS011;3833;41.764;26.204;2023-03-14T13:50:53;4.10;;;3.80;;
7583;SDS011;3833;41.764;26.204;2023-03-14T13:53:21;4.17;;;3.70;;
7583;SDS011;3833;41.764;26.204;2023-03-14T13:55:50;3.83;;;3.47;;
7583;SDS011;3833;41.764;26.204;2023-03-14T13:58:24;4.07;;;3.73;;
7583;SDS011;3833;41.764;26.204;2023-03-14T14:00:59;4.67;;;4.23;;
7583;SDS011;3833;41.764;26.204;2023-03-14T14:03:30;3.73;;;3.43;;
7583;SDS011;3833;41.764;26.204;2023-03-14T14:05:58;7.37;;;4.03;;
7583;SDS011;3833;41.764;26.204;2023-03-14T14:08:25;3.83;;;3.53;;
7583;SDS011;3833;41.764;26.204;2023-03-14T14:10:54;3.60;;;3.30;;
7583;SDS011;3833;41.764;26.204;2023-03-14T14:13:26;3.90;;;3.60;;
7583;SDS011;3833;41.764;26.204;2023-03-14T14:15:57;4.17;;;3.80;;
7583;SDS011;3833;41.764;26.204;2023-03-14T14:18:28;3.50;;;3.20;;
7583;SDS011;3833;41.764;26.204;2023-03-14T14:20:58;3.27;;;2.97;;
7583;SDS011;3833;41.764;26.204;2023-03-14T14:23:26;4.00;;;3.70;;
7583;SDS011;3833;41.764;26.204;2023-03-14T14:25:56;5.30;;;4.73;;
7583;SDS011;3833;41.764;26.204;2023-03-14T14:28:26;3.87;;;3.30;;
7583;SDS011;3833;41.764;26.204;2023-03-14T14:30:59;4.20;;;3.67;;
7583;SDS011;3833;41.764;26.204;2023-03-14T14:33:37;3.80;;;3.50;;
7583;SDS011;3833;41.764;26.204;2023-03-14T14:36:12;4.13;;;3.83;;
7583;SDS011;3833;41.764;26.204;2023-03-14T14:38:48;7.93;;;4.20;;
7583;SDS011;3833;41.764;26.204;2023-03-14T14:41:16;4.40;;;4.00;;
7583;SDS011;3833;41.764;26.204;2023-03-14T14:43:44;4.10;;;3.80;;
7583;SDS011;3833;41.764;26.204;2023-03-14T14:46:13;3.47;;;3.03;;
7583;SDS011;3833;41.764;26.204;2023-03-14T14:48:43;4.60;;;3.47;;
7583;SDS011;3833;41.764;26.204;2023-03-14T14:51:22;4.33;;;3.10;;
7583;SDS011;3833;41.764;26.204;2023-03-14T14:53:59;3.50;;;3.10;;
7583;SDS011;3833;41.764;26.204;2023-03-14T14:56:34;3.30;;;3.00;;
7583;SDS011;3833;41.764;26.204;2023-03-14T14:59:04;2.90;;;2.63;;
7583;SDS011;3833;41.764;26.204;2023-03-14T15:01:34;3.27;;;2.77;;
7583;SDS011;3833;41.764;26.204;2023-03-14T15:04:04;4.30;;;3.10;;
7583;SDS011;3833;41.764;26.204;2023-03-14T15:06:38;3.73;;;3.00;;
7583;SDS011;3833;41.764;26.204;2023-03-14T15:09:08;5.33;;;3.00;;
7583;SDS011;3833;41.764;26.204;2023-03-14T15:11:36;3.40;;;2.80;;
7583;SDS011;3833;41.764;26.204;2023-03-14T15:14:05;3.60;;;3.07;;